Main page
METAR-TAF:

METAR-TAF

Airports :

Lugano Airport

Lugano, Switzerland

latitude: 46-00N, longitude: 008-58E, elevation: 273 m

Current weather observation

The report was made 31 minutes ago, at 22:50 UTC
Wind 2 kt from variable directions
Temperature 14°C
Humidity 72%
Pressure 1008 hPa
Visibility 10 km or more
Broken clouds at a height of 4000 ft
Broken clouds at a height of 4500 ft

METAR: LSZA 222250Z AUTO VRB02KT 9999 BKN040 BKN045 14/09 Q1008

Time: 01:21 (23:21 UTC)

Forecast

The report was made 8 hours and 56 minutes ago, at 14:25 UTC
Forecast valid from 22 at 15 UTC to 22 at 24 UTC
Wind 8 kt from the South
Visibility 10 km or more
Scattered clouds at a height of 8500 ft
Broken clouds at a height of 10000 ft
Becoming
from 22 at 18 UTC to 22 at 21 UTC
Wind 3 kt from variable directions

TAF: LSZA 221425Z 2215/2224 19008KT 9999 SCT085 BKN100 BECMG 2218/2221 VRB03KT

Weather observations and forecasts of more than 4000 airports (METAR and TAF reports).

The available stations are represented by yellow and red dots on the map.

Hover mouse over dot to see the name of the station.

Then click to see weather observations and forecasts.

To change the map : click on the green buttons with a black cross to zoom in, on the green button with a dash to zoom out, or on the green arrows for adjacent maps.


METAR-TAF: